sensor_id;sensor_type;location;lat;lon;timestamp;P1;durP1;ratioP1;P2;durP2;ratioP2
67997;SDS011;54773;53.388;-1.504;2023-06-26T00:00:11;7.63;;;1.80;;
67997;SDS011;54773;53.388;-1.504;2023-06-26T00:02:56;5.13;;;1.50;;
67997;SDS011;54773;53.388;-1.504;2023-06-26T00:05:39;4.90;;;1.47;;
67997;SDS011;54773;53.388;-1.504;2023-06-26T00:08:23;6.00;;;1.70;;
67997;SDS011;54773;53.388;-1.504;2023-06-26T00:11:11;5.38;;;1.55;;
67997;SDS011;54773;53.388;-1.504;2023-06-26T00:13:55;8.02;;;1.70;;
67997;SDS011;54773;53.388;-1.504;2023-06-26T00:16:38;6.43;;;1.80;;
67997;SDS011;54773;53.388;-1.504;2023-06-26T00:19:22;6.50;;;1.77;;
67997;SDS011;54773;53.388;-1.504;2023-06-26T00:22:10;5.97;;;1.70;;
67997;SDS011;54773;53.388;-1.504;2023-06-26T00:24:54;4.25;;;1.65;;
67997;SDS011;54773;53.388;-1.504;2023-06-26T00:27:38;4.22;;;1.13;;
67997;SDS011;54773;53.388;-1.504;2023-06-26T00:30:22;6.60;;;1.87;;
67997;SDS011;54773;53.388;-1.504;2023-06-26T00:33:06;5.60;;;1.40;;
67997;SDS011;54773;53.388;-1.504;2023-06-26T00:35:50;4.47;;;1.50;;
67997;SDS011;54773;53.388;-1.504;2023-06-26T00:38:34;7.20;;;1.45;;
67997;SDS011;54773;53.388;-1.504;2023-06-26T00:41:19;5.35;;;1.60;;
67997;SDS011;54773;53.388;-1.504;2023-06-26T00:44:03;3.20;;;1.58;;
67997;SDS011;54773;53.388;-1.504;2023-06-26T00:46:48;5.15;;;1.35;;
67997;SDS011;54773;53.388;-1.504;2023-06-26T00:49:32;4.07;;;1.55;;
67997;SDS011;54773;53.388;-1.504;2023-06-26T00:52:19;5.57;;;1.73;;
67997;SDS011;54773;53.388;-1.504;2023-06-26T00:55:03;7.00;;;1.73;;
67997;SDS011;54773;53.388;-1.504;2023-06-26T00:57:48;6.55;;;1.50;;
67997;SDS011;54773;53.388;-1.504;2023-06-26T01:00:32;3.80;;;1.42;;
67997;SDS011;54773;53.388;-1.504;2023-06-26T01:03:16;4.85;;;1.63;;
67997;SDS011;54773;53.388;-1.504;2023-06-26T01:06:00;5.70;;;1.97;;
67997;SDS011;54773;53.388;-1.504;2023-06-26T01:08:45;3.72;;;1.50;;
67997;SDS011;54773;53.388;-1.504;2023-06-26T01:11:29;5.30;;;1.70;;
67997;SDS011;54773;53.388;-1.504;2023-06-26T01:14:13;5.28;;;1.63;;
67997;SDS011;54773;53.388;-1.504;2023-06-26T01:16:58;5.65;;;1.80;;
67997;SDS011;54773;53.388;-1.504;2023-06-26T01:19:47;5.03;;;1.90;;
67997;SDS011;54773;53.388;-1.504;2023-06-26T01:26:14;5.57;;;2.00;;
67997;SDS011;54773;53.388;-1.504;2023-06-26T01:29:04;6.07;;;1.95;;
67997;SDS011;54773;53.388;-1.504;2023-06-26T01:31:50;5.50;;;1.67;;
67997;SDS011;54773;53.388;-1.504;2023-06-26T01:34:34;3.70;;;1.90;;
67997;SDS011;54773;53.388;-1.504;2023-06-26T01:37:18;5.85;;;2.22;;
67997;SDS011;54773;53.388;-1.504;2023-06-26T01:40:02;4.87;;;2.10;;
67997;SDS011;54773;53.388;-1.504;2023-06-26T01:42:49;6.05;;;2.10;;
67997;SDS011;54773;53.388;-1.504;2023-06-26T01:45:33;4.72;;;1.92;;
67997;SDS011;54773;53.388;-1.504;2023-06-26T01:48:22;4.78;;;1.90;;
67997;SDS011;54773;53.388;-1.504;2023-06-26T01:51:08;5.75;;;2.33;;
67997;SDS011;54773;53.388;-1.504;2023-06-26T01:53:53;4.85;;;2.13;;
67997;SDS011;54773;53.388;-1.504;2023-06-26T01:56:38;7.05;;;2.40;;
67997;SDS011;54773;53.388;-1.504;2023-06-26T01:59:22;6.07;;;2.42;;
67997;SDS011;54773;53.388;-1.504;2023-06-26T02:02:07;5.63;;;2.20;;
67997;SDS011;54773;53.388;-1.504;2023-06-26T02:04:52;6.05;;;2.20;;
67997;SDS011;54773;53.388;-1.504;2023-06-26T02:07:35;5.80;;;2.00;;
67997;SDS011;54773;53.388;-1.504;2023-06-26T02:10:19;4.80;;;1.95;;
67997;SDS011;54773;53.388;-1.504;2023-06-26T02:13:03;7.00;;;2.40;;
67997;SDS011;54773;53.388;-1.504;2023-06-26T02:15:47;8.57;;;2.55;;
67997;SDS011;54773;53.388;-1.504;2023-06-26T02:18:32;6.45;;;2.22;;
67997;SDS011;54773;53.388;-1.504;2023-06-26T02:21:16;7.38;;;2.70;;
67997;SDS011;54773;53.388;-1.504;2023-06-26T02:24:00;4.15;;;2.30;;
67997;SDS011;54773;53.388;-1.504;2023-06-26T02:26:44;4.70;;;2.38;;
67997;SDS011;54773;53.388;-1.504;2023-06-26T02:29:29;7.45;;;2.50;;
67997;SDS011;54773;53.388;-1.504;2023-06-26T02:32:13;5.87;;;2.53;;
67997;SDS011;54773;53.388;-1.504;2023-06-26T02:35:00;7.82;;;2.70;;
67997;SDS011;54773;53.388;-1.504;2023-06-26T02:37:44;4.63;;;2.75;;
67997;SDS011;54773;53.388;-1.504;2023-06-26T02:40:34;6.40;;;3.10;;
67997;SDS011;54773;53.388;-1.504;2023-06-26T02:43:18;5.03;;;2.72;;
67997;SDS011;54773;53.388;-1.504;2023-06-26T02:46:02;5.63;;;2.50;;
67997;SDS011;54773;53.388;-1.504;2023-06-26T02:48:46;5.72;;;2.70;;
67997;SDS011;54773;53.388;-1.504;2023-06-26T02:51:31;5.40;;;2.67;;
67997;SDS011;54773;53.388;-1.504;2023-06-26T02:54:16;3.95;;;2.40;;
67997;SDS011;54773;53.388;-1.504;2023-06-26T02:57:00;5.63;;;2.50;;
67997;SDS011;54773;53.388;-1.504;2023-06-26T02:59:44;5.63;;;2.63;;
67997;SDS011;54773;53.388;-1.504;2023-06-26T03:02:28;5.93;;;2.47;;
67997;SDS011;54773;53.388;-1.504;2023-06-26T03:05:12;6.15;;;2.50;;
67997;SDS011;54773;53.388;-1.504;2023-06-26T03:07:56;7.55;;;2.45;;
67997;SDS011;54773;53.388;-1.504;2023-06-26T03:10:40;5.70;;;2.78;;
67997;SDS011;54773;53.388;-1.504;2023-06-26T03:13:24;4.80;;;2.50;;
67997;SDS011;54773;53.388;-1.504;2023-06-26T03:16:08;5.28;;;2.78;;
67997;SDS011;54773;53.388;-1.504;2023-06-26T03:18:52;5.77;;;2.80;;
67997;SDS011;54773;53.388;-1.504;2023-06-26T03:21:36;4.50;;;2.58;;
67997;SDS011;54773;53.388;-1.504;2023-06-26T03:24:20;6.07;;;2.73;;
67997;SDS011;54773;53.388;-1.504;2023-06-26T03:27:07;5.88;;;2.80;;
67997;SDS011;54773;53.388;-1.504;2023-06-26T03:29:53;6.25;;;2.97;;
67997;SDS011;54773;53.388;-1.504;2023-06-26T03:32:37;4.93;;;2.70;;
67997;SDS011;54773;53.388;-1.504;2023-06-26T03:35:21;7.25;;;2.80;;
67997;SDS011;54773;53.388;-1.504;2023-06-26T03:38:05;5.40;;;2.78;;
67997;SDS011;54773;53.388;-1.504;2023-06-26T03:40:49;5.37;;;2.40;;
67997;SDS011;54773;53.388;-1.504;2023-06-26T03:43:34;6.82;;;2.22;;
67997;SDS011;54773;53.388;-1.504;2023-06-26T03:46:18;5.70;;;2.38;;
67997;SDS011;54773;53.388;-1.504;2023-06-26T03:49:02;5.67;;;2.50;;
67997;SDS011;54773;53.388;-1.504;2023-06-26T03:51:46;6.78;;;2.20;;
67997;SDS011;54773;53.388;-1.504;2023-06-26T03:54:30;4.93;;;2.28;;
67997;SDS011;54773;53.388;-1.504;2023-06-26T03:57:14;7.35;;;2.50;;
67997;SDS011;54773;53.388;-1.504;2023-06-26T03:59:58;7.45;;;2.35;;
67997;SDS011;54773;53.388;-1.504;2023-06-26T04:02:42;5.70;;;2.17;;
67997;SDS011;54773;53.388;-1.504;2023-06-26T04:05:25;6.15;;;2.50;;
67997;SDS011;54773;53.388;-1.504;2023-06-26T04:08:09;8.75;;;2.40;;
67997;SDS011;54773;53.388;-1.504;2023-06-26T04:10:53;7.63;;;3.10;;
67997;SDS011;54773;53.388;-1.504;2023-06-26T04:13:39;7.28;;;2.85;;
67997;SDS011;54773;53.388;-1.504;2023-06-26T04:16:23;6.03;;;2.70;;
67997;SDS011;54773;53.388;-1.504;2023-06-26T04:19:12;6.93;;;2.50;;
67997;SDS011;54773;53.388;-1.504;2023-06-26T04:21:57;4.85;;;2.50;;
67997;SDS011;54773;53.388;-1.504;2023-06-26T04:24:41;5.53;;;2.67;;
67997;SDS011;54773;53.388;-1.504;2023-06-26T04:27:25;6.75;;;3.13;;
67997;SDS011;54773;53.388;-1.504;2023-06-26T04:30:09;6.10;;;2.70;;
67997;SDS011;54773;53.388;-1.504;2023-06-26T04:32:53;7.47;;;2.95;;
67997;SDS011;54773;53.388;-1.504;2023-06-26T04:35:37;4.93;;;2.60;;
67997;SDS011;54773;53.388;-1.504;2023-06-26T04:38:21;5.50;;;2.70;;
67997;SDS011;54773;53.388;-1.504;2023-06-26T04:41:05;7.80;;;2.90;;
67997;SDS011;54773;53.388;-1.504;2023-06-26T04:43:49;8.57;;;2.70;;
67997;SDS011;54773;53.388;-1.504;2023-06-26T04:46:33;5.63;;;2.38;;
67997;SDS011;54773;53.388;-1.504;2023-06-26T04:49:17;5.70;;;2.53;;
67997;SDS011;54773;53.388;-1.504;2023-06-26T04:52:03;4.55;;;2.10;;
67997;SDS011;54773;53.388;-1.504;2023-06-26T04:54:48;5.82;;;2.55;;
67997;SDS011;54773;53.388;-1.504;2023-06-26T04:57:32;4.93;;;2.17;;
67997;SDS011;54773;53.388;-1.504;2023-06-26T05:00:19;4.78;;;2.10;;
67997;SDS011;54773;53.388;-1.504;2023-06-26T05:03:03;7.10;;;2.35;;
67997;SDS011;54773;53.388;-1.504;2023-06-26T05:05:47;5.77;;;1.83;;
67997;SDS011;54773;53.388;-1.504;2023-06-26T05:08:31;5.20;;;2.10;;
67997;SDS011;54773;53.388;-1.504;2023-06-26T05:11:15;4.63;;;1.95;;
67997;SDS011;54773;53.388;-1.504;2023-06-26T05:14:00;4.80;;;2.30;;
67997;SDS011;54773;53.388;-1.504;2023-06-26T05:16:43;5.43;;;2.10;;
67997;SDS011;54773;53.388;-1.504;2023-06-26T05:19:28;7.18;;;2.63;;
67997;SDS011;54773;53.388;-1.504;2023-06-26T05:22:12;4.37;;;2.50;;
67997;SDS011;54773;53.388;-1.504;2023-06-26T05:24:57;7.07;;;3.08;;
67997;SDS011;54773;53.388;-1.504;2023-06-26T05:27:42;5.55;;;2.97;;
67997;SDS011;54773;53.388;-1.504;2023-06-26T05:30:27;8.32;;;3.28;;
67997;SDS011;54773;53.388;-1.504;2023-06-26T05:33:15;6.07;;;3.50;;
67997;SDS011;54773;53.388;-1.504;2023-06-26T05:36:01;8.43;;;3.25;;
67997;SDS011;54773;53.388;-1.504;2023-06-26T05:38:47;6.60;;;3.03;;
67997;SDS011;54773;53.388;-1.504;2023-06-26T05:41:34;5.32;;;2.95;;
67997;SDS011;54773;53.388;-1.504;2023-06-26T05:44:19;10.30;;;3.42;;
67997;SDS011;54773;53.388;-1.504;2023-06-26T05:47:03;6.03;;;2.60;;
67997;SDS011;54773;53.388;-1.504;2023-06-26T05:49:47;6.68;;;3.17;;
67997;SDS011;54773;53.388;-1.504;2023-06-26T05:52:32;5.63;;;2.58;;
67997;SDS011;54773;53.388;-1.504;2023-06-26T05:55:16;6.82;;;3.00;;
67997;SDS011;54773;53.388;-1.504;2023-06-26T05:58:01;6.40;;;2.97;;
67997;SDS011;54773;53.388;-1.504;2023-06-26T06:00:49;5.40;;;2.40;;
67997;SDS011;54773;53.388;-1.504;2023-06-26T06:03:33;7.10;;;3.08;;
67997;SDS011;54773;53.388;-1.504;2023-06-26T06:06:19;8.10;;;2.58;;
67997;SDS011;54773;53.388;-1.504;2023-06-26T06:09:03;6.07;;;2.50;;
67997;SDS011;54773;53.388;-1.504;2023-06-26T06:11:47;6.03;;;2.30;;
67997;SDS011;54773;53.388;-1.504;2023-06-26T06:14:31;6.07;;;2.42;;
67997;SDS011;54773;53.388;-1.504;2023-06-26T06:17:15;5.78;;;2.40;;
67997;SDS011;54773;53.388;-1.504;2023-06-26T06:19:59;6.47;;;2.43;;
67997;SDS011;54773;53.388;-1.504;2023-06-26T06:22:43;8.00;;;2.80;;
67997;SDS011;54773;53.388;-1.504;2023-06-26T06:25:28;7.05;;;2.55;;
67997;SDS011;54773;53.388;-1.504;2023-06-26T06:28:12;6.30;;;2.40;;
67997;SDS011;54773;53.388;-1.504;2023-06-26T06:30:56;7.40;;;2.10;;
67997;SDS011;54773;53.388;-1.504;2023-06-26T06:33:39;5.95;;;2.20;;
67997;SDS011;54773;53.388;-1.504;2023-06-26T06:36:24;8.52;;;2.42;;
67997;SDS011;54773;53.388;-1.504;2023-06-26T06:39:07;7.53;;;2.33;;
67997;SDS011;54773;53.388;-1.504;2023-06-26T06:41:52;9.30;;;2.63;;
67997;SDS011;54773;53.388;-1.504;2023-06-26T06:44:36;8.83;;;1.97;;
67997;SDS011;54773;53.388;-1.504;2023-06-26T06:47:19;6.77;;;2.10;;
67997;SDS011;54773;53.388;-1.504;2023-06-26T06:50:03;6.07;;;2.47;;
67997;SDS011;54773;53.388;-1.504;2023-06-26T06:52:54;6.25;;;2.25;;
67997;SDS011;54773;53.388;-1.504;2023-06-26T06:55:38;11.13;;;2.47;;
67997;SDS011;54773;53.388;-1.504;2023-06-26T06:58:22;8.93;;;2.07;;
67997;SDS011;54773;53.388;-1.504;2023-06-26T07:01:09;7.30;;;2.25;;
67997;SDS011;54773;53.388;-1.504;2023-06-26T07:03:54;8.35;;;2.22;;
67997;SDS011;54773;53.388;-1.504;2023-06-26T07:06:37;5.20;;;1.93;;
67997;SDS011;54773;53.388;-1.504;2023-06-26T07:09:22;6.38;;;2.10;;
67997;SDS011;54773;53.388;-1.504;2023-06-26T07:12:05;5.90;;;1.93;;
67997;SDS011;54773;53.388;-1.504;2023-06-26T07:14:53;9.50;;;2.20;;
67997;SDS011;54773;53.388;-1.504;2023-06-26T07:17:41;6.78;;;1.92;;
67997;SDS011;54773;53.388;-1.504;2023-06-26T07:20:25;7.85;;;1.92;;
67997;SDS011;54773;53.388;-1.504;2023-06-26T07:23:09;6.22;;;1.83;;
67997;SDS011;54773;53.388;-1.504;2023-06-26T07:25:53;8.53;;;2.40;;
67997;SDS011;54773;53.388;-1.504;2023-06-26T07:28:37;7.20;;;2.10;;
67997;SDS011;54773;53.388;-1.504;2023-06-26T07:31:21;12.90;;;2.55;;
67997;SDS011;54773;53.388;-1.504;2023-06-26T07:34:05;6.35;;;1.80;;
67997;SDS011;54773;53.388;-1.504;2023-06-26T07:36:49;4.97;;;1.67;;
67997;SDS011;54773;53.388;-1.504;2023-06-26T07:39:33;7.30;;;2.03;;
67997;SDS011;54773;53.388;-1.504;2023-06-26T07:42:17;7.53;;;1.70;;
67997;SDS011;54773;53.388;-1.504;2023-06-26T07:45:04;7.47;;;1.83;;
67997;SDS011;54773;53.388;-1.504;2023-06-26T07:47:53;6.53;;;2.00;;
67997;SDS011;54773;53.388;-1.504;2023-06-26T07:50:43;5.72;;;1.70;;
67997;SDS011;54773;53.388;-1.504;2023-06-26T07:53:27;5.68;;;1.67;;
67997;SDS011;54773;53.388;-1.504;2023-06-26T07:56:11;6.85;;;1.70;;
67997;SDS011;54773;53.388;-1.504;2023-06-26T07:58:56;8.77;;;1.95;;
67997;SDS011;54773;53.388;-1.504;2023-06-26T08:01:42;5.00;;;1.50;;
67997;SDS011;54773;53.388;-1.504;2023-06-26T08:04:27;6.32;;;2.15;;
67997;SDS011;54773;53.388;-1.504;2023-06-26T08:07:13;6.45;;;1.60;;
67997;SDS011;54773;53.388;-1.504;2023-06-26T08:10:00;6.03;;;1.90;;
67997;SDS011;54773;53.388;-1.504;2023-06-26T08:12:44;5.55;;;1.77;;
67997;SDS011;54773;53.388;-1.504;2023-06-26T08:15:28;6.27;;;1.63;;
67997;SDS011;54773;53.388;-1.504;2023-06-26T08:18:12;5.78;;;1.40;;
67997;SDS011;54773;53.388;-1.504;2023-06-26T08:20:56;7.37;;;1.63;;
67997;SDS011;54773;53.388;-1.504;2023-06-26T08:23:40;7.45;;;1.45;;
67997;SDS011;54773;53.388;-1.504;2023-06-26T08:26:24;8.07;;;1.77;;
67997;SDS011;54773;53.388;-1.504;2023-06-26T08:29:08;4.60;;;1.50;;
67997;SDS011;54773;53.388;-1.504;2023-06-26T08:31:52;6.05;;;1.70;;
67997;SDS011;54773;53.388;-1.504;2023-06-26T08:34:36;7.43;;;1.58;;
67997;SDS011;54773;53.388;-1.504;2023-06-26T08:37:21;7.13;;;1.90;;
67997;SDS011;54773;53.388;-1.504;2023-06-26T08:40:06;6.97;;;1.50;;
67997;SDS011;54773;53.388;-1.504;2023-06-26T08:42:51;4.90;;;1.48;;
67997;SDS011;54773;53.388;-1.504;2023-06-26T08:45:37;5.82;;;1.60;;
67997;SDS011;54773;53.388;-1.504;2023-06-26T08:48:21;11.30;;;1.83;;
67997;SDS011;54773;53.388;-1.504;2023-06-26T08:51:15;4.00;;;1.63;;
67997;SDS011;54773;53.388;-1.504;2023-06-26T08:54:01;7.43;;;2.03;;
67997;SDS011;54773;53.388;-1.504;2023-06-26T08:56:45;5.85;;;1.75;;
67997;SDS011;54773;53.388;-1.504;2023-06-26T08:59:33;7.72;;;1.85;;
67997;SDS011;54773;53.388;-1.504;2023-06-26T09:02:17;4.00;;;1.60;;
67997;SDS011;54773;53.388;-1.504;2023-06-26T09:05:02;4.97;;;1.60;;
67997;SDS011;54773;53.388;-1.504;2023-06-26T09:07:47;5.00;;;1.60;;
67997;SDS011;54773;53.388;-1.504;2023-06-26T09:10:35;6.57;;;1.75;;
67997;SDS011;54773;53.388;-1.504;2023-06-26T09:13:19;4.27;;;1.23;;
67997;SDS011;54773;53.388;-1.504;2023-06-26T09:16:06;5.10;;;1.30;;
67997;SDS011;54773;53.388;-1.504;2023-06-26T09:18:51;6.18;;;1.48;;
67997;SDS011;54773;53.388;-1.504;2023-06-26T09:21:35;4.13;;;1.63;;
67997;SDS011;54773;53.388;-1.504;2023-06-26T09:24:19;5.85;;;1.48;;
67997;SDS011;54773;53.388;-1.504;2023-06-26T09:27:04;5.07;;;1.17;;
67997;SDS011;54773;53.388;-1.504;2023-06-26T09:29:55;5.57;;;1.40;;
67997;SDS011;54773;53.388;-1.504;2023-06-26T09:32:40;6.72;;;1.20;;
67997;SDS011;54773;53.388;-1.504;2023-06-26T09:35:24;4.40;;;1.20;;
67997;SDS011;54773;53.388;-1.504;2023-06-26T09:38:14;3.75;;;1.20;;
67997;SDS011;54773;53.388;-1.504;2023-06-26T09:41:02;6.80;;;1.30;;
67997;SDS011;54773;53.388;-1.504;2023-06-26T09:43:47;4.32;;;1.10;;
67997;SDS011;54773;53.388;-1.504;2023-06-26T09:46:33;4.20;;;1.15;;
67997;SDS011;54773;53.388;-1.504;2023-06-26T09:49:16;3.97;;;1.02;;
67997;SDS011;54773;53.388;-1.504;2023-06-26T09:52:01;7.32;;;1.20;;
67997;SDS011;54773;53.388;-1.504;2023-06-26T09:54:46;3.95;;;1.20;;
67997;SDS011;54773;53.388;-1.504;2023-06-26T09:57:30;7.38;;;1.27;;
67997;SDS011;54773;53.388;-1.504;2023-06-26T10:00:14;4.82;;;1.20;;
67997;SDS011;54773;53.388;-1.504;2023-06-26T10:02:59;3.60;;;0.90;;
67997;SDS011;54773;53.388;-1.504;2023-06-26T10:05:44;5.00;;;1.10;;
67997;SDS011;54773;53.388;-1.504;2023-06-26T10:08:30;3.63;;;1.23;;
67997;SDS011;54773;53.388;-1.504;2023-06-26T10:11:16;4.88;;;1.10;;
67997;SDS011;54773;53.388;-1.504;2023-06-26T10:14:01;6.00;;;1.42;;
67997;SDS011;54773;53.388;-1.504;2023-06-26T10:16:47;4.95;;;1.20;;
67997;SDS011;54773;53.388;-1.504;2023-06-26T10:19:32;6.25;;;1.20;;
67997;SDS011;54773;53.388;-1.504;2023-06-26T10:22:17;4.18;;;1.02;;
67997;SDS011;54773;53.388;-1.504;2023-06-26T10:25:01;4.65;;;1.20;;
67997;SDS011;54773;53.388;-1.504;2023-06-26T10:27:50;6.25;;;1.67;;
67997;SDS011;54773;53.388;-1.504;2023-06-26T10:30:37;5.22;;;1.02;;
67997;SDS011;54773;53.388;-1.504;2023-06-26T10:33:23;3.75;;;1.20;;
67997;SDS011;54773;53.388;-1.504;2023-06-26T10:36:17;5.30;;;1.00;;
67997;SDS011;54773;53.388;-1.504;2023-06-26T10:39:11;4.57;;;1.00;;
67997;SDS011;54773;53.388;-1.504;2023-06-26T10:42:08;5.30;;;1.20;;
67997;SDS011;54773;53.388;-1.504;2023-06-26T10:44:53;3.97;;;1.00;;
67997;SDS011;54773;53.388;-1.504;2023-06-26T10:47:37;5.53;;;1.00;;
67997;SDS011;54773;53.388;-1.504;2023-06-26T10:50:28;6.35;;;1.15;;
67997;SDS011;54773;53.388;-1.504;2023-06-26T10:56:40;3.35;;;1.00;;
67997;SDS011;54773;53.388;-1.504;2023-06-26T10:59:30;3.63;;;1.20;;
67997;SDS011;54773;53.388;-1.504;2023-06-26T11:02:15;6.50;;;1.38;;
67997;SDS011;54773;53.388;-1.504;2023-06-26T11:04:59;3.45;;;1.00;;
67997;SDS011;54773;53.388;-1.504;2023-06-26T11:08:02;7.47;;;1.23;;
67997;SDS011;54773;53.388;-1.504;2023-06-26T11:10:53;5.03;;;1.02;;
67997;SDS011;54773;53.388;-1.504;2023-06-26T11:13:41;3.88;;;1.23;;
67997;SDS011;54773;53.388;-1.504;2023-06-26T11:16:25;4.60;;;1.10;;
67997;SDS011;54773;53.388;-1.504;2023-06-26T11:19:09;3.33;;;0.70;;
67997;SDS011;54773;53.388;-1.504;2023-06-26T11:22:02;4.68;;;1.25;;
67997;SDS011;54773;53.388;-1.504;2023-06-26T11:24:48;3.67;;;1.05;;
67997;SDS011;54773;53.388;-1.504;2023-06-26T11:30:24;4.05;;;0.88;;
67997;SDS011;54773;53.388;-1.504;2023-06-26T11:33:09;3.83;;;0.90;;
67997;SDS011;54773;53.388;-1.504;2023-06-26T11:35:54;3.38;;;0.95;;
67997;SDS011;54773;53.388;-1.504;2023-06-26T11:41:23;4.20;;;1.23;;
67997;SDS011;54773;53.388;-1.504;2023-06-26T11:44:09;4.22;;;0.98;;
67997;SDS011;54773;53.388;-1.504;2023-06-26T11:46:53;3.25;;;0.98;;
67997;SDS011;54773;53.388;-1.504;2023-06-26T11:49:38;4.97;;;1.08;;
67997;SDS011;54773;53.388;-1.504;2023-06-26T11:52:26;3.42;;;1.00;;
67997;SDS011;54773;53.388;-1.504;2023-06-26T11:55:10;5.20;;;1.00;;
67997;SDS011;54773;53.388;-1.504;2023-06-26T11:57:57;6.10;;;1.13;;
67997;SDS011;54773;53.388;-1.504;2023-06-26T12:00:41;3.13;;;0.80;;
67997;SDS011;54773;53.388;-1.504;2023-06-26T12:03:28;5.43;;;0.90;;
67997;SDS011;54773;53.388;-1.504;2023-06-26T12:06:13;6.47;;;1.20;;
67997;SDS011;54773;53.388;-1.504;2023-06-26T12:08:57;3.78;;;0.90;;
67997;SDS011;54773;53.388;-1.504;2023-06-26T12:11:43;5.80;;;1.35;;
67997;SDS011;54773;53.388;-1.504;2023-06-26T12:14:28;5.72;;;1.00;;
67997;SDS011;54773;53.388;-1.504;2023-06-26T12:17:13;5.10;;;1.02;;
67997;SDS011;54773;53.388;-1.504;2023-06-26T12:22:41;2.95;;;0.90;;
67997;SDS011;54773;53.388;-1.504;2023-06-26T12:25:25;5.38;;;1.10;;
67997;SDS011;54773;53.388;-1.504;2023-06-26T12:28:18;4.13;;;0.90;;
67997;SDS011;54773;53.388;-1.504;2023-06-26T12:31:15;5.18;;;1.17;;
67997;SDS011;54773;53.388;-1.504;2023-06-26T12:33:59;5.00;;;1.30;;
67997;SDS011;54773;53.388;-1.504;2023-06-26T12:36:48;6.13;;;1.40;;
67997;SDS011;54773;53.388;-1.504;2023-06-26T12:39:46;3.35;;;0.95;;
67997;SDS011;54773;53.388;-1.504;2023-06-26T12:42:32;5.00;;;1.10;;
67997;SDS011;54773;53.388;-1.504;2023-06-26T12:45:17;5.78;;;1.20;;
67997;SDS011;54773;53.388;-1.504;2023-06-26T12:48:10;4.68;;;1.20;;
67997;SDS011;54773;53.388;-1.504;2023-06-26T12:50:57;6.05;;;1.00;;
67997;SDS011;54773;53.388;-1.504;2023-06-26T12:53:41;3.20;;;1.10;;
67997;SDS011;54773;53.388;-1.504;2023-06-26T12:56:26;4.75;;;1.30;;
67997;SDS011;54773;53.388;-1.504;2023-06-26T13:01:54;5.05;;;1.30;;
67997;SDS011;54773;53.388;-1.504;2023-06-26T13:04:38;4.53;;;1.20;;
67997;SDS011;54773;53.388;-1.504;2023-06-26T13:07:25;5.85;;;1.65;;
67997;SDS011;54773;53.388;-1.504;2023-06-26T13:10:09;4.93;;;1.13;;
67997;SDS011;54773;53.388;-1.504;2023-06-26T13:12:54;2.85;;;1.00;;
67997;SDS011;54773;53.388;-1.504;2023-06-26T13:15:38;3.88;;;0.90;;
67997;SDS011;54773;53.388;-1.504;2023-06-26T13:18:22;3.70;;;1.10;;
67997;SDS011;54773;53.388;-1.504;2023-06-26T13:21:06;3.33;;;0.93;;
67997;SDS011;54773;53.388;-1.504;2023-06-26T13:23:50;4.82;;;0.80;;
67997;SDS011;54773;53.388;-1.504;2023-06-26T13:26:34;4.80;;;1.23;;
67997;SDS011;54773;53.388;-1.504;2023-06-26T13:29:18;6.53;;;1.35;;
67997;SDS011;54773;53.388;-1.504;2023-06-26T13:32:02;4.93;;;1.10;;
67997;SDS011;54773;53.388;-1.504;2023-06-26T13:34:47;3.42;;;0.98;;
67997;SDS011;54773;53.388;-1.504;2023-06-26T13:37:35;2.78;;;0.90;;
67997;SDS011;54773;53.388;-1.504;2023-06-26T13:40:20;3.83;;;0.70;;
67997;SDS011;54773;53.388;-1.504;2023-06-26T13:43:04;4.60;;;1.02;;
67997;SDS011;54773;53.388;-1.504;2023-06-26T13:45:48;3.08;;;0.85;;
67997;SDS011;54773;53.388;-1.504;2023-06-26T13:48:33;3.45;;;0.88;;
67997;SDS011;54773;53.388;-1.504;2023-06-26T13:51:17;3.08;;;0.90;;
67997;SDS011;54773;53.388;-1.504;2023-06-26T13:54:01;3.00;;;0.70;;
67997;SDS011;54773;53.388;-1.504;2023-06-26T13:56:45;5.00;;;1.02;;
67997;SDS011;54773;53.388;-1.504;2023-06-26T13:59:32;5.45;;;0.90;;
67997;SDS011;54773;53.388;-1.504;2023-06-26T14:02:16;5.45;;;1.10;;
67997;SDS011;54773;53.388;-1.504;2023-06-26T14:05:00;4.85;;;1.00;;
67997;SDS011;54773;53.388;-1.504;2023-06-26T14:07:44;3.97;;;1.02;;
67997;SDS011;54773;53.388;-1.504;2023-06-26T14:10:28;3.13;;;1.00;;
67997;SDS011;54773;53.388;-1.504;2023-06-26T14:13:12;3.13;;;0.82;;
67997;SDS011;54773;53.388;-1.504;2023-06-26T14:15:59;5.20;;;1.10;;
67997;SDS011;54773;53.388;-1.504;2023-06-26T14:18:43;7.20;;;1.10;;
67997;SDS011;54773;53.388;-1.504;2023-06-26T14:21:27;3.08;;;1.02;;
67997;SDS011;54773;53.388;-1.504;2023-06-26T14:24:11;4.75;;;0.88;;
67997;SDS011;54773;53.388;-1.504;2023-06-26T14:26:55;4.50;;;1.00;;
67997;SDS011;54773;53.388;-1.504;2023-06-26T14:29:39;4.82;;;1.13;;
67997;SDS011;54773;53.388;-1.504;2023-06-26T14:32:23;3.25;;;0.77;;
67997;SDS011;54773;53.388;-1.504;2023-06-26T14:35:07;3.78;;;1.33;;
67997;SDS011;54773;53.388;-1.504;2023-06-26T14:37:51;4.47;;;1.20;;
67997;SDS011;54773;53.388;-1.504;2023-06-26T14:40:35;7.47;;;0.95;;
67997;SDS011;54773;53.388;-1.504;2023-06-26T14:43:20;2.92;;;0.75;;
67997;SDS011;54773;53.388;-1.504;2023-06-26T14:46:03;4.10;;;0.80;;
67997;SDS011;54773;53.388;-1.504;2023-06-26T14:48:48;2.55;;;0.63;;
67997;SDS011;54773;53.388;-1.504;2023-06-26T14:51:32;2.38;;;0.77;;
67997;SDS011;54773;53.388;-1.504;2023-06-26T14:54:16;3.72;;;0.80;;
67997;SDS011;54773;53.388;-1.504;2023-06-26T14:57:00;2.67;;;0.70;;
67997;SDS011;54773;53.388;-1.504;2023-06-26T14:59:44;2.20;;;0.73;;
67997;SDS011;54773;53.388;-1.504;2023-06-26T15:02:28;2.72;;;0.77;;
67997;SDS011;54773;53.388;-1.504;2023-06-26T15:05:12;5.25;;;1.02;;
67997;SDS011;54773;53.388;-1.504;2023-06-26T15:07:59;4.63;;;0.93;;
67997;SDS011;54773;53.388;-1.504;2023-06-26T15:10:43;4.25;;;1.00;;
67997;SDS011;54773;53.388;-1.504;2023-06-26T15:16:15;2.80;;;0.60;;
67997;SDS011;54773;53.388;-1.504;2023-06-26T15:18:59;3.28;;;0.70;;
67997;SDS011;54773;53.388;-1.504;2023-06-26T15:21:43;4.78;;;0.75;;
67997;SDS011;54773;53.388;-1.504;2023-06-26T15:24:27;6.10;;;1.05;;
67997;SDS011;54773;53.388;-1.504;2023-06-26T15:27:11;3.08;;;1.00;;
67997;SDS011;54773;53.388;-1.504;2023-06-26T15:29:57;5.40;;;1.00;;
67997;SDS011;54773;53.388;-1.504;2023-06-26T15:32:40;5.50;;;1.15;;
67997;SDS011;54773;53.388;-1.504;2023-06-26T15:35:25;5.35;;;1.17;;
67997;SDS011;54773;53.388;-1.504;2023-06-26T15:38:10;5.18;;;0.90;;
67997;SDS011;54773;53.388;-1.504;2023-06-26T15:40:54;3.80;;;0.80;;
67997;SDS011;54773;53.388;-1.504;2023-06-26T15:43:38;3.92;;;1.00;;
67997;SDS011;54773;53.388;-1.504;2023-06-26T15:46:23;4.78;;;0.95;;
67997;SDS011;54773;53.388;-1.504;2023-06-26T15:49:07;5.18;;;0.82;;
67997;SDS011;54773;53.388;-1.504;2023-06-26T15:51:51;3.45;;;0.90;;
67997;SDS011;54773;53.388;-1.504;2023-06-26T15:54:35;4.22;;;1.00;;
67997;SDS011;54773;53.388;-1.504;2023-06-26T15:57:18;4.35;;;1.00;;
67997;SDS011;54773;53.388;-1.504;2023-06-26T16:00:06;5.47;;;1.00;;
67997;SDS011;54773;53.388;-1.504;2023-06-26T16:02:53;4.30;;;1.00;;
67997;SDS011;54773;53.388;-1.504;2023-06-26T16:05:37;4.22;;;0.88;;
67997;SDS011;54773;53.388;-1.504;2023-06-26T16:08:21;6.93;;;1.60;;
67997;SDS011;54773;53.388;-1.504;2023-06-26T16:11:05;6.28;;;1.20;;
67997;SDS011;54773;53.388;-1.504;2023-06-26T16:13:49;3.95;;;1.00;;
67997;SDS011;54773;53.388;-1.504;2023-06-26T16:16:33;5.85;;;1.20;;
67997;SDS011;54773;53.388;-1.504;2023-06-26T16:19:17;3.75;;;1.00;;
67997;SDS011;54773;53.388;-1.504;2023-06-26T16:22:01;4.60;;;1.30;;
67997;SDS011;54773;53.388;-1.504;2023-06-26T16:24:45;5.23;;;1.20;;
67997;SDS011;54773;53.388;-1.504;2023-06-26T16:27:30;5.38;;;1.83;;
67997;SDS011;54773;53.388;-1.504;2023-06-26T16:30:13;5.63;;;1.40;;
67997;SDS011;54773;53.388;-1.504;2023-06-26T16:32:58;5.70;;;1.30;;
67997;SDS011;54773;53.388;-1.504;2023-06-26T16:35:42;5.80;;;1.15;;
67997;SDS011;54773;53.388;-1.504;2023-06-26T16:38:26;5.05;;;1.27;;